Time;durP1;ratioP1;P1;durP2;ratioP2;P2;SDS_P1;SDS_P2;PMS_P1;PMS_P2;Temp;Humidity;BMP_temperature;BMP_pressure;BME280_temperature;BME280_humidity;BME280_pressure;Samples;Min_cycle;Max_cycle;Signal;HPM_P1;HPM_P2
2022/07/17 00:01:28;;;;;;;;;;;29.00;91.60;;;;;;5147831;27;19910;-46
2022/07/17 00:03:54;;;;;;;;;;;29.00;91.80;;;;;;5147625;27;19970;-45
2022/07/17 00:06:21;;;;;;;;;;;29.00;91.80;;;;;;5147756;27;20188;-45
2022/07/17 00:08:47;;;;;;;;;;;29.00;92.10;;;;;;5147701;27;20137;-43
2022/07/17 00:11:13;;;;;;;;;;;29.00;92.10;;;;;;5147465;27;19912;-46
2022/07/17 00:13:39;;;;;;;;;;;29.00;92.20;;;;;;5147513;27;19917;-44
2022/07/17 00:16:06;;;;;;;;;;;29.00;92.30;;;;;;5147255;27;20184;-43
2022/07/17 00:18:32;;;;;;;;;;;28.90;92.50;;;;;;5147125;27;19915;-44
2022/07/17 00:20:58;;;;;;;;;;;28.90;92.60;;;;;;5147296;27;19938;-48
2022/07/17 00:23:24;;;;;;;;;;;28.90;92.60;;;;;;5147371;27;20004;-45
2022/07/17 00:25:50;;;;;;;;;;;28.90;92.60;;;;;;5147089;27;19911;-47
2022/07/17 00:28:17;;;;;;;;;;;28.90;92.70;;;;;;5147147;27;19899;-45
2022/07/17 00:30:43;;;;;;;;;;;28.80;92.70;;;;;;5147174;27;19903;-42
2022/07/17 00:33:09;;;;;;;;;;;28.80;92.80;;;;;;5146915;27;19906;-43
2022/07/17 00:35:35;;;;;;;;;;;28.70;92.90;;;;;;5143654;27;19958;-45
2022/07/17 00:38:01;;;;;;;;;;;28.60;92.90;;;;;;5132771;27;20142;-52
2022/07/17 00:40:27;;;;;;;;;;;28.60;92.90;;;;;;5132923;27;19904;-44
2022/07/17 00:42:54;;;;;;;;;;;28.50;92.80;;;;;;5126816;28;19911;-43
2022/07/17 00:45:24;;;;;;;;;;;28.50;93.00;;;;;;5126903;28;19939;-42
2022/07/17 00:47:53;;;;;;;;;;;28.50;93.00;;;;;;5126209;28;19903;-42
2022/07/17 00:50:20;;;;;;;;;;;28.50;93.10;;;;;;5126253;28;20267;-44
2022/07/17 00:52:47;;;;;;;;;;;28.40;93.20;;;;;;5126064;28;19904;-42
2022/07/17 00:55:13;;;;;;;;;;;28.40;93.40;;;;;;5125950;28;19930;-46
2022/07/17 00:57:40;;;;;;;;;;;28.40;93.40;;;;;;5126032;28;20096;-42
2022/07/17 01:00:10;;;;;;;;;;;28.40;93.50;;;;;;5125811;28;19941;-46
2022/07/17 01:02:37;;;;;;;;;;;28.30;93.50;;;;;;5130077;27;19909;-46
2022/07/17 01:05:04;;;;;;;;;;;28.40;93.50;;;;;;5135071;27;19974;-46
2022/07/17 01:07:30;;;;;;;;;;;28.30;93.50;;;;;;5127896;27;19899;-41
2022/07/17 01:09:56;;;;;;;;;;;28.20;93.60;;;;;;5146466;27;19907;-48
2022/07/17 01:12:24;;;;;;;;;;;28.20;93.70;;;;;;5146693;27;20141;-52
2022/07/17 01:14:51;;;;;;;;;;;28.20;93.70;;;;;;5146779;27;19907;-45
2022/07/17 01:17:17;;;;;;;;;;;28.10;93.70;;;;;;5145481;27;19918;-51
2022/07/17 01:19:44;;;;;;;;;;;28.20;93.70;;;;;;5132196;27;19929;-45
2022/07/17 01:22:10;;;;;;;;;;;28.20;93.80;;;;;;5126347;28;19911;-45
2022/07/17 01:24:40;;;;;;;;;;;28.20;93.80;;;;;;5126149;28;19908;-48
2022/07/17 01:27:06;;;;;;;;;;;28.10;93.90;;;;;;5126734;28;19908;-43
2022/07/17 01:29:32;;;;;;;;;;;28.10;93.90;;;;;;5132565;27;19919;-45
2022/07/17 01:31:59;;;;;;;;;;;28.10;93.90;;;;;;5143971;27;19911;-45
2022/07/17 01:34:25;;;;;;;;;;;28.10;93.90;;;;;;5115229;27;19907;-51
2022/07/17 01:36:51;;;;;;;;;;;28.10;94.10;;;;;;5146199;27;19955;-45
2022/07/17 01:39:52;;;;;;;;;;;28.10;94.10;;;;;;5145940;27;19934;-43
2022/07/17 01:42:04;;;;;;;;;;;28.10;94.20;;;;;;5146285;27;20100;-46
2022/07/17 01:44:30;;;;;;;;;;;28.00;94.10;;;;;;5146388;27;20092;-51
2022/07/17 01:46:56;;;;;;;;;;;28.00;94.10;;;;;;5145886;27;20194;-49
2022/07/17 01:49:22;;;;;;;;;;;28.00;94.10;;;;;;5145599;27;20187;-48
2022/07/17 01:51:49;;;;;;;;;;;28.00;94.10;;;;;;5146143;27;19906;-42
2022/07/17 01:54:15;;;;;;;;;;;28.00;94.10;;;;;;5145370;27;19907;-43
2022/07/17 01:56:41;;;;;;;;;;;28.00;94.20;;;;;;5145606;27;19921;-42
2022/07/17 01:59:08;;;;;;;;;;;27.90;94.20;;;;;;5145599;27;19915;-46
2022/07/17 02:01:34;;;;;;;;;;;27.90;94.10;;;;;;5145513;27;19979;-45
2022/07/17 02:04:00;;;;;;;;;;;27.90;94.30;;;;;;5145388;27;19950;-43
2022/07/17 02:06:26;;;;;;;;;;;27.90;94.40;;;;;;5145557;27;19899;-44
2022/07/17 02:08:52;;;;;;;;;;;27.90;94.50;;;;;;5145171;28;19914;-47
2022/07/17 02:11:18;;;;;;;;;;;27.80;94.50;;;;;;5145514;28;19899;-45
2022/07/17 02:13:45;;;;;;;;;;;27.80;94.40;;;;;;5145295;28;19913;-45
2022/07/17 02:16:11;;;;;;;;;;;27.90;94.30;;;;;;5144256;28;19907;-44
2022/07/17 02:18:37;;;;;;;;;;;27.90;94.30;;;;;;5145771;27;19914;-51
2022/07/17 02:21:03;;;;;;;;;;;28.00;94.10;;;;;;5131631;27;19906;-43
2022/07/17 02:23:30;;;;;;;;;;;28.00;94.10;;;;;;5149706;27;19911;-53
2022/07/17 02:25:56;;;;;;;;;;;28.00;94.10;;;;;;5131839;27;19930;-45
2022/07/17 02:28:22;;;;;;;;;;;28.00;94.10;;;;;;5149187;27;19945;-45
2022/07/17 02:30:48;;;;;;;;;;;28.00;94.00;;;;;;5131232;27;19900;-46
2022/07/17 02:33:14;;;;;;;;;;;28.10;94.00;;;;;;5131637;27;19915;-50
2022/07/17 02:35:40;;;;;;;;;;;28.10;94.00;;;;;;5149080;27;19906;-46
2022/07/17 02:38:07;;;;;;;;;;;28.10;93.90;;;;;;5131587;27;19907;-44
2022/07/17 02:40:33;;;;;;;;;;;28.00;93.90;;;;;;5149066;27;19940;-48
2022/07/17 02:42:59;;;;;;;;;;;28.10;93.90;;;;;;5149474;27;19922;-49
2022/07/17 02:45:28;;;;;;;;;;;28.10;93.80;;;;;;5147656;27;19899;-48
2022/07/17 02:47:55;;;;;;;;;;;28.10;93.90;;;;;;5142969;27;19907;-45
2022/07/17 02:50:21;;;;;;;;;;;28.10;93.70;;;;;;5148959;27;19940;-51
2022/07/17 02:52:49;;;;;;;;;;;28.00;93.70;;;;;;5143878;27;19941;-46
2022/07/17 02:55:16;;;;;;;;;;;28.10;93.70;;;;;;5145147;27;19908;-50
2022/07/17 02:57:43;;;;;;;;;;;28.00;93.60;;;;;;5149132;27;19899;-48
2022/07/17 03:00:11;;;;;;;;;;;28.00;93.70;;;;;;5148907;27;19907;-43
2022/07/17 03:02:37;;;;;;;;;;;28.00;93.70;;;;;;5148582;27;19906;-52
2022/07/17 03:05:04;;;;;;;;;;;28.00;93.80;;;;;;5148838;27;19912;-46
2022/07/17 03:07:31;;;;;;;;;;;28.00;93.80;;;;;;5148936;27;19899;-45
2022/07/17 03:09:57;;;;;;;;;;;28.00;93.80;;;;;;5149495;27;19908;-49
2022/07/17 03:12:23;;;;;;;;;;;28.00;93.90;;;;;;5148847;27;19915;-43
2022/07/17 03:14:49;;;;;;;;;;;28.00;93.90;;;;;;5148490;27;19907;-45
2022/07/17 03:17:15;;;;;;;;;;;27.90;94.00;;;;;;5148293;27;20279;-45
2022/07/17 03:19:41;;;;;;;;;;;27.90;94.20;;;;;;5148380;27;20121;-46
2022/07/17 03:22:08;;;;;;;;;;;27.90;94.00;;;;;;5148377;27;20243;-47
2022/07/17 03:24:34;;;;;;;;;;;27.90;93.90;;;;;;5148708;27;19903;-44
2022/07/17 03:27:00;;;;;;;;;;;27.90;94.00;;;;;;5148508;27;19914;-49
2022/07/17 03:29:26;;;;;;;;;;;27.90;94.10;;;;;;5149022;27;19899;-53
2022/07/17 03:31:52;;;;;;;;;;;27.80;94.00;;;;;;5130392;27;19911;-50
2022/07/17 03:34:18;;;;;;;;;;;27.90;94.10;;;;;;5148869;27;19906;-52
2022/07/17 03:36:45;;;;;;;;;;;27.80;94.00;;;;;;5148003;27;19919;-49
2022/07/17 03:39:14;;;;;;;;;;;27.90;94.00;;;;;;5148509;27;19903;-43
2022/07/17 03:41:42;;;;;;;;;;;27.80;94.00;;;;;;5147744;27;19962;-43
2022/07/17 03:44:08;;;;;;;;;;;27.80;94.10;;;;;;5148219;27;20103;-47
2022/07/17 03:46:35;;;;;;;;;;;27.80;94.00;;;;;;5147976;27;19926;-47
2022/07/17 03:49:01;;;;;;;;;;;27.80;94.00;;;;;;5147983;27;19945;-46
2022/07/17 03:51:27;;;;;;;;;;;27.80;94.10;;;;;;5147886;27;19903;-52
2022/07/17 03:53:53;;;;;;;;;;;27.80;94.20;;;;;;5148216;27;19904;-52
2022/07/17 03:56:19;;;;;;;;;;;27.80;94.10;;;;;;5147700;27;19907;-52
2022/07/17 03:58:46;;;;;;;;;;;27.80;94.20;;;;;;5129865;27;19947;-52
2022/07/17 04:01:12;;;;;;;;;;;27.80;94.20;;;;;;5147878;27;20096;-43
2022/07/17 04:03:38;;;;;;;;;;;27.80;94.20;;;;;;5147850;27;19968;-51
2022/07/17 04:06:04;;;;;;;;;;;27.80;94.30;;;;;;5147345;27;19956;-52
2022/07/17 04:08:30;;;;;;;;;;;27.80;94.20;;;;;;5147503;27;19974;-44
2022/07/17 04:10:57;;;;;;;;;;;27.80;94.10;;;;;;5147274;27;19911;-48
2022/07/17 04:13:23;;;;;;;;;;;27.80;94.10;;;;;;5147277;27;19903;-46
2022/07/17 04:15:49;;;;;;;;;;;27.80;94.30;;;;;;5147208;27;19931;-43
2022/07/17 04:18:22;;;;;;;;;;;27.80;94.20;;;;;;5147024;27;19911;-42
2022/07/17 04:20:49;;;;;;;;;;;27.80;94.30;;;;;;5147037;27;20215;-45
2022/07/17 04:23:15;;;;;;;;;;;27.70;94.30;;;;;;5147113;27;20037;-45
2022/07/17 04:25:41;;;;;;;;;;;27.70;94.40;;;;;;5147042;27;20200;-46
2022/07/17 04:28:08;;;;;;;;;;;27.70;94.40;;;;;;5146846;27;19938;-43
2022/07/17 04:30:34;;;;;;;;;;;27.70;94.40;;;;;;5146792;27;19904;-45
2022/07/17 04:33:01;;;;;;;;;;;27.70;94.30;;;;;;5146904;27;19934;-44
2022/07/17 04:35:27;;;;;;;;;;;27.70;94.10;;;;;;5146666;27;20095;-46
2022/07/17 04:37:56;;;;;;;;;;;27.60;94.00;;;;;;5146820;27;19911;-48
2022/07/17 04:40:23;;;;;;;;;;;27.70;94.00;;;;;;5146652;27;20243;-44
2022/07/17 04:42:49;;;;;;;;;;;27.70;93.90;;;;;;5145922;27;19899;-47
2022/07/17 04:45:15;;;;;;;;;;;27.70;93.90;;;;;;5146524;27;19907;-50
2022/07/17 04:47:41;;;;;;;;;;;27.70;93.90;;;;;;5146652;27;19899;-43
2022/07/17 04:50:09;;;;;;;;;;;27.60;93.80;;;;;;5146356;27;19944;-43
2022/07/17 04:52:35;;;;;;;;;;;27.60;93.80;;;;;;5146785;27;19899;-54
2022/07/17 04:55:02;;;;;;;;;;;27.60;93.80;;;;;;5146481;27;20180;-54
2022/07/17 04:57:28;;;;;;;;;;;27.60;93.80;;;;;;5146209;27;20183;-47
2022/07/17 04:59:54;;;;;;;;;;;27.60;93.80;;;;;;5146334;27;19914;-49
2022/07/17 05:02:20;;;;;;;;;;;27.50;93.90;;;;;;5146192;27;19903;-47
2022/07/17 05:04:47;;;;;;;;;;;27.60;93.80;;;;;;5146012;27;19911;-46
2022/07/17 05:07:13;;;;;;;;;;;27.60;93.80;;;;;;5146180;27;19899;-45
2022/07/17 05:09:39;;;;;;;;;;;27.50;93.80;;;;;;5146111;27;19907;-46
2022/07/17 05:12:06;;;;;;;;;;;27.50;93.80;;;;;;5146008;27;19907;-52
2022/07/17 05:14:32;;;;;;;;;;;27.50;93.80;;;;;;5146522;27;19934;-55
2022/07/17 05:16:59;;;;;;;;;;;27.50;93.80;;;;;;5146098;27;19928;-58
2022/07/17 05:19:25;;;;;;;;;;;27.50;93.80;;;;;;5146350;27;20228;-54
2022/07/17 05:21:51;;;;;;;;;;;27.50;93.80;;;;;;5146074;27;19919;-43
2022/07/17 05:24:17;;;;;;;;;;;27.50;93.80;;;;;;5146408;27;19903;-48
2022/07/17 05:26:43;;;;;;;;;;;27.50;93.70;;;;;;5146054;27;20099;-43
2022/07/17 05:29:09;;;;;;;;;;;27.50;93.70;;;;;;5146235;27;19900;-45
2022/07/17 05:31:35;;;;;;;;;;;27.50;93.70;;;;;;5146047;27;19907;-48
2022/07/17 05:34:02;;;;;;;;;;;27.50;93.70;;;;;;5146303;27;19938;-47
2022/07/17 05:36:28;;;;;;;;;;;27.50;93.60;;;;;;5145491;27;19922;-53
2022/07/17 05:38:54;;;;;;;;;;;27.50;93.60;;;;;;5146141;27;19903;-44
2022/07/17 05:41:20;;;;;;;;;;;27.40;93.50;;;;;;5145766;27;19933;-44
2022/07/17 05:43:46;;;;;;;;;;;27.50;93.50;;;;;;5145736;27;19944;-49
2022/07/17 05:46:12;;;;;;;;;;;27.40;93.50;;;;;;5145713;27;19907;-46
2022/07/17 05:48:38;;;;;;;;;;;27.40;93.50;;;;;;5145961;27;19899;-44
2022/07/17 05:51:05;;;;;;;;;;;27.40;93.40;;;;;;5145389;27;20153;-53
2022/07/17 05:53:31;;;;;;;;;;;27.40;93.50;;;;;;5145130;27;20091;-44
2022/07/17 05:55:57;;;;;;;;;;;27.40;93.60;;;;;;5145601;27;19915;-44
2022/07/17 05:58:23;;;;;;;;;;;27.40;93.90;;;;;;5145580;27;19899;-43
2022/07/17 06:00:49;;;;;;;;;;;27.40;93.70;;;;;;5145581;27;19907;-44
2022/07/17 06:03:16;;;;;;;;;;;27.40;93.80;;;;;;5145499;27;20184;-46
2022/07/17 06:05:42;;;;;;;;;;;27.40;93.80;;;;;;5145504;27;20245;-49
2022/07/17 06:08:08;;;;;;;;;;;27.40;93.80;;;;;;5145501;27;19900;-44
2022/07/17 06:10:34;;;;;;;;;;;27.40;93.90;;;;;;5145319;28;20008;-46
2022/07/17 06:13:01;;;;;;;;;;;27.40;94.00;;;;;;5145423;28;19899;-44
2022/07/17 06:15:27;;;;;;;;;;;27.40;94.00;;;;;;5145211;28;19914;-46
2022/07/17 06:17:53;;;;;;;;;;;27.40;94.00;;;;;;5145424;28;19936;-49
2022/07/17 06:20:19;;;;;;;;;;;27.40;93.90;;;;;;5145271;28;19945;-53
2022/07/17 06:22:46;;;;;;;;;;;27.30;93.90;;;;;;5145141;28;19937;-52
2022/07/17 06:25:12;;;;;;;;;;;27.30;93.90;;;;;;5145196;28;20197;-51
2022/07/17 06:27:39;;;;;;;;;;;27.30;94.00;;;;;;5145369;28;19906;-52
2022/07/17 06:30:06;;;;;;;;;;;27.30;94.00;;;;;;5144995;28;19911;-56
2022/07/17 06:32:32;;;;;;;;;;;27.30;94.00;;;;;;5145157;28;19943;-54
2022/07/17 06:34:58;;;;;;;;;;;27.20;93.90;;;;;;5145192;28;19915;-43
2022/07/17 06:37:25;;;;;;;;;;;27.20;93.80;;;;;;5144801;28;20195;-44
2022/07/17 06:39:51;;;;;;;;;;;27.20;93.70;;;;;;5145227;28;19949;-43
2022/07/17 06:42:17;;;;;;;;;;;27.20;93.40;;;;;;5144244;28;20000;-51
2022/07/17 06:44:43;;;;;;;;;;;27.10;93.30;;;;;;5137318;28;19917;-43
2022/07/17 06:47:09;;;;;;;;;;;27.10;93.30;;;;;;5139655;28;19934;-44
2022/07/17 06:49:35;;;;;;;;;;;27.10;93.00;;;;;;5136019;28;19904;-43
2022/07/17 06:52:01;;;;;;;;;;;27.10;92.90;;;;;;5131648;28;20108;-47
2022/07/17 06:54:27;;;;;;;;;;;27.10;92.60;;;;;;5126650;28;19904;-43
2022/07/17 06:56:54;;;;;;;;;;;27.00;92.90;;;;;;5133616;28;19904;-44
2022/07/17 06:59:20;;;;;;;;;;;27.00;93.10;;;;;;5127088;28;19907;-45
2022/07/17 07:01:47;;;;;;;;;;;27.00;93.00;;;;;;5133827;28;19903;-43
2022/07/17 07:04:13;;;;;;;;;;;26.90;93.10;;;;;;5124787;28;19907;-44
2022/07/17 07:06:39;;;;;;;;;;;26.90;93.30;;;;;;5128214;28;20082;-48
2022/07/17 07:09:05;;;;;;;;;;;26.90;93.40;;;;;;5128471;28;19966;-44
2022/07/17 07:11:31;;;;;;;;;;;26.90;93.40;;;;;;5128311;28;19967;-43
2022/07/17 07:13:58;;;;;;;;;;;26.90;93.40;;;;;;5128549;28;19903;-44
2022/07/17 07:16:24;;;;;;;;;;;26.90;93.60;;;;;;5127894;28;19910;-44
2022/07/17 07:18:50;;;;;;;;;;;26.90;93.50;;;;;;5128417;28;19911;-43
2022/07/17 07:21:16;;;;;;;;;;;26.90;93.50;;;;;;5128036;28;19911;-47
2022/07/17 07:23:42;;;;;;;;;;;26.90;93.60;;;;;;5127897;28;19908;-52
2022/07/17 07:26:09;;;;;;;;;;;26.90;93.50;;;;;;5128143;28;20188;-45
2022/07/17 07:28:35;;;;;;;;;;;26.80;93.60;;;;;;5128119;28;19911;-44
2022/07/17 07:31:01;;;;;;;;;;;26.90;93.60;;;;;;5127641;28;20283;-44
2022/07/17 07:33:27;;;;;;;;;;;26.90;93.60;;;;;;5127754;28;19908;-44
2022/07/17 07:35:53;;;;;;;;;;;26.80;93.60;;;;;;5109572;28;19958;-44
2022/07/17 07:38:19;;;;;;;;;;;26.90;93.70;;;;;;5127761;28;19972;-47
2022/07/17 07:40:45;;;;;;;;;;;26.80;93.70;;;;;;5127572;28;19904;-44
2022/07/17 07:43:12;;;;;;;;;;;26.90;93.80;;;;;;5127586;28;19947;-47
2022/07/17 07:45:38;;;;;;;;;;;26.90;93.80;;;;;;5138844;27;19904;-42
2022/07/17 07:48:05;;;;;;;;;;;26.80;93.90;;;;;;5148160;27;20117;-42
2022/07/17 07:50:31;;;;;;;;;;;26.80;93.80;;;;;;5147835;27;19903;-42
2022/07/17 07:52:57;;;;;;;;;;;26.80;93.80;;;;;;5148067;27;19911;-48
2022/07/17 07:55:23;;;;;;;;;;;26.80;93.80;;;;;;5147808;27;19986;-44
2022/07/17 07:57:49;;;;;;;;;;;26.70;94.00;;;;;;5148028;27;19974;-45
2022/07/17 08:00:16;;;;;;;;;;;26.80;93.80;;;;;;5147800;27;20206;-43
2022/07/17 08:02:42;;;;;;;;;;;26.70;93.80;;;;;;5147740;27;20220;-44
2022/07/17 08:05:08;;;;;;;;;;;26.70;93.80;;;;;;5147712;27;19908;-43
2022/07/17 08:07:35;;;;;;;;;;;26.70;93.80;;;;;;5147717;27;19903;-48
2022/07/17 08:10:02;;;;;;;;;;;26.70;93.90;;;;;;5147474;27;19903;-45
2022/07/17 08:12:28;;;;;;;;;;;26.60;93.80;;;;;;5147708;27;19900;-47
2022/07/17 08:14:55;;;;;;;;;;;26.70;93.90;;;;;;5147486;27;20211;-47
2022/07/17 08:17:21;;;;;;;;;;;26.60;94.00;;;;;;5139607;27;20217;-43
2022/07/17 08:19:47;;;;;;;;;;;26.60;94.10;;;;;;5127868;27;19945;-43
2022/07/17 08:22:13;;;;;;;;;;;26.60;94.20;;;;;;5126705;28;19900;-43
2022/07/17 08:24:39;;;;;;;;;;;26.60;94.00;;;;;;5126622;28;19918;-44
2022/07/17 08:27:05;;;;;;;;;;;26.60;94.10;;;;;;5131054;27;19907;-42
2022/07/17 08:29:31;;;;;;;;;;;26.60;94.10;;;;;;5147704;27;19948;-50
2022/07/17 08:31:58;;;;;;;;;;;26.60;94.10;;;;;;5147161;27;19910;-43
2022/07/17 08:34:24;;;;;;;;;;;26.60;94.20;;;;;;5147475;27;19907;-44
2022/07/17 08:36:50;;;;;;;;;;;26.60;94.10;;;;;;5146955;27;20093;-42
2022/07/17 08:39:16;;;;;;;;;;;26.60;94.10;;;;;;5147440;27;20207;-44
2022/07/17 08:41:43;;;;;;;;;;;26.60;94.20;;;;;;5146860;27;19925;-48
2022/07/17 08:44:09;;;;;;;;;;;26.60;94.20;;;;;;5147195;27;19907;-44
2022/07/17 08:46:36;;;;;;;;;;;26.50;94.10;;;;;;5146899;27;19938;-46
2022/07/17 08:49:03;;;;;;;;;;;26.50;94.20;;;;;;5147079;27;19966;-47
2022/07/17 08:51:29;;;;;;;;;;;26.50;94.20;;;;;;5146760;27;19930;-46
2022/07/17 08:53:56;;;;;;;;;;;26.50;94.40;;;;;;5147006;27;19903;-44
2022/07/17 08:56:22;;;;;;;;;;;26.50;94.30;;;;;;5146582;27;19946;-43
2022/07/17 08:58:48;;;;;;;;;;;26.50;94.60;;;;;;5147066;27;20240;-52
2022/07/17 09:01:15;;;;;;;;;;;26.50;94.50;;;;;;5146570;27;19907;-42
2022/07/17 09:03:42;;;;;;;;;;;26.50;94.40;;;;;;5146460;27;19910;-42
2022/07/17 09:06:18;;;;;;;;;;;26.50;94.50;;;;;;5146608;27;19907;-45
2022/07/17 09:08:44;;;;;;;;;;;26.40;94.50;;;;;;5146623;27;19983;-47
2022/07/17 09:11:10;;;;;;;;;;;26.40;94.50;;;;;;5146522;27;19914;-44
2022/07/17 09:13:36;;;;;;;;;;;26.50;94.50;;;;;;5146660;27;20235;-43
2022/07/17 09:16:05;;;;;;;;;;;26.40;94.30;;;;;;5146306;27;19907;-47
2022/07/17 09:18:41;;;;;;;;;;;26.40;94.40;;;;;;5146355;27;19903;-46
2022/07/17 09:21:16;;;;;;;;;;;26.40;94.30;;;;;;5128169;27;20204;-53
2022/07/17 09:23:42;;;;;;;;;;;26.40;94.30;;;;;;5146160;27;19904;-45
2022/07/17 09:26:09;;;;;;;;;;;26.40;94.40;;;;;;5146139;27;19911;-47
2022/07/17 09:28:44;;;;;;;;;;;26.40;94.30;;;;;;5146049;27;20221;-44
2022/07/17 09:31:10;;;;;;;;;;;26.30;94.30;;;;;;5145757;27;19948;-44
2022/07/17 09:33:36;;;;;;;;;;;26.30;94.30;;;;;;5146138;27;19899;-46
2022/07/17 09:36:12;;;;;;;;;;;26.30;94.30;;;;;;5145792;27;20127;-48
2022/07/17 09:38:39;;;;;;;;;;;26.30;94.20;;;;;;5146044;27;19907;-46
2022/07/17 09:41:11;;;;;;;;;;;26.30;94.20;;;;;;5145915;27;19935;-45
2022/07/17 09:43:57;;;;;;;;;;;26.30;94.20;;;;;;5145972;27;19911;-49
2022/07/17 09:46:26;;;;;;;;;;;26.30;94.20;;;;;;5145250;27;19911;-45
2022/07/17 09:49:13;;;;;;;;;;;26.30;94.10;;;;;;5145967;27;20148;-46
2022/07/17 09:51:40;;;;;;;;;;;26.30;94.10;;;;;;5145632;27;19903;-48
2022/07/17 09:54:07;;;;;;;;;;;26.30;94.20;;;;;;5146036;27;19963;-51
2022/07/17 09:56:34;;;;;;;;;;;26.30;94.30;;;;;;5145571;27;20154;-44
2022/07/17 09:59:08;;;;;;;;;;;26.20;94.30;;;;;;5145977;27;19970;-47
2022/07/17 10:01:34;;;;;;;;;;;26.20;94.40;;;;;;5145503;27;19911;-47
2022/07/17 10:04:00;;;;;;;;;;;26.20;94.40;;;;;;5145374;27;20115;-49
2022/07/17 10:06:27;;;;;;;;;;;26.20;94.40;;;;;;5145352;27;19903;-48
2022/07/17 10:08:54;;;;;;;;;;;26.20;94.40;;;;;;5145740;27;19963;-44
2022/07/17 10:11:21;;;;;;;;;;;26.20;94.40;;;;;;5145532;28;19903;-46
2022/07/17 10:13:49;;;;;;;;;;;26.20;94.40;;;;;;5145787;28;19903;-43
2022/07/17 10:16:24;;;;;;;;;;;26.10;94.30;;;;;;5145353;28;19911;-43
2022/07/17 10:18:52;;;;;;;;;;;26.20;94.60;;;;;;5145870;28;19910;-42
2022/07/17 10:21:19;;;;;;;;;;;26.10;94.20;;;;;;5145369;28;19910;-44
2022/07/17 10:24:05;;;;;;;;;;;26.10;94.30;;;;;;5145368;28;19950;-47
2022/07/17 10:26:32;;;;;;;;;;;26.10;94.30;;;;;;5145336;28;19903;-43
2022/07/17 10:28:58;;;;;;;;;;;26.10;94.30;;;;;;5145536;28;19903;-43
2022/07/17 10:31:29;;;;;;;;;;;26.10;94.30;;;;;;5145235;28;19904;-43
2022/07/17 10:33:56;;;;;;;;;;;26.10;94.30;;;;;;5145843;28;19907;-42
2022/07/17 10:36:32;;;;;;;;;;;26.00;94.30;;;;;;5144894;28;19915;-46
2022/07/17 10:38:59;;;;;;;;;;;26.10;94.30;;;;;;5145671;27;19903;-44
2022/07/17 10:41:26;;;;;;;;;;;26.10;94.20;;;;;;5148915;27;19975;-47
2022/07/17 10:43:52;;;;;;;;;;;26.10;94.20;;;;;;5149363;27;19909;-47
2022/07/17 10:46:18;;;;;;;;;;;26.10;94.10;;;;;;5149267;27;19908;-47
2022/07/17 10:48:48;;;;;;;;;;;26.00;94.10;;;;;;5149033;27;20068;-47
2022/07/17 10:51:14;;;;;;;;;;;26.00;94.10;;;;;;5148858;27;19911;-51
2022/07/17 10:53:40;;;;;;;;;;;26.00;94.20;;;;;;5149432;27;19903;-41
2022/07/17 10:56:07;;;;;;;;;;;26.00;94.10;;;;;;5148911;27;20119;-43
2022/07/17 10:58:44;;;;;;;;;;;26.00;94.10;;;;;;5149081;27;19903;-49
2022/07/17 11:01:14;;;;;;;;;;;26.00;94.10;;;;;;5148939;27;20002;-45
2022/07/17 11:03:42;;;;;;;;;;;26.00;94.20;;;;;;5149008;27;19903;-43
2022/07/17 11:06:10;;;;;;;;;;;26.00;94.20;;;;;;5148844;27;19915;-47
2022/07/17 11:08:43;;;;;;;;;;;26.00;94.20;;;;;;5149109;27;19936;-46
2022/07/17 11:11:09;;;;;;;;;;;26.00;94.20;;;;;;5148591;27;19907;-43
2022/07/17 11:13:35;;;;;;;;;;;26.00;94.10;;;;;;5149105;27;20180;-46
2022/07/17 11:16:02;;;;;;;;;;;26.00;94.20;;;;;;5148499;27;19919;-46
2022/07/17 11:18:29;;;;;;;;;;;26.00;94.30;;;;;;5148796;27;19970;-44
2022/07/17 11:20:59;;;;;;;;;;;25.90;94.30;;;;;;5130222;27;20108;-45
2022/07/17 11:23:27;;;;;;;;;;;25.90;94.20;;;;;;5148255;27;19915;-48
2022/07/17 11:25:56;;;;;;;;;;;26.00;94.30;;;;;;5148355;27;19904;-42
2022/07/17 11:28:35;;;;;;;;;;;25.90;94.20;;;;;;5148771;27;19903;-45
2022/07/17 11:31:02;;;;;;;;;;;25.90;94.20;;;;;;5148303;27;19903;-56
2022/07/17 11:33:29;;;;;;;;;;;25.90;94.30;;;;;;5148819;27;20008;-46
2022/07/17 11:35:55;;;;;;;;;;;25.90;94.30;;;;;;5147963;27;20144;-47
2022/07/17 11:38:25;;;;;;;;;;;25.90;94.30;;;;;;5148377;27;20172;-47
2022/07/17 11:40:51;;;;;;;;;;;25.90;94.40;;;;;;5148173;27;20304;-45
2022/07/17 11:43:18;;;;;;;;;;;26.00;94.50;;;;;;5148256;27;19914;-43
2022/07/17 11:45:44;;;;;;;;;;;25.90;94.50;;;;;;5147910;27;19904;-44
2022/07/17 11:48:11;;;;;;;;;;;25.90;94.50;;;;;;5148123;27;19935;-44
2022/07/17 11:50:37;;;;;;;;;;;25.90;94.60;;;;;;5147561;27;20183;-48
2022/07/17 11:53:05;;;;;;;;;;;25.90;94.60;;;;;;5147284;27;19903;-52
2022/07/17 11:55:40;;;;;;;;;;;25.90;94.70;;;;;;5147245;27;19965;-49
2022/07/17 11:58:06;;;;;;;;;;;25.90;95.00;;;;;;5148131;27;19903;-44
2022/07/17 12:00:33;;;;;;;;;;;25.90;94.80;;;;;;5146484;27;19974;-48
2022/07/17 12:03:03;;;;;;;;;;;25.90;94.90;;;;;;5147927;27;19903;-45
2022/07/17 12:05:31;;;;;;;;;;;26.00;94.90;;;;;;5147721;27;20184;-44
2022/07/17 12:07:57;;;;;;;;;;;26.00;95.10;;;;;;5147203;27;19944;-45
2022/07/17 12:10:25;;;;;;;;;;;26.00;95.00;;;;;;5147943;27;19910;-43
2022/07/17 12:12:54;;;;;;;;;;;26.00;95.00;;;;;;5129483;27;19953;-46
2022/07/17 12:15:21;;;;;;;;;;;26.00;95.00;;;;;;5147578;27;19944;-45
2022/07/17 12:17:48;;;;;;;;;;;26.00;95.10;;;;;;5144283;27;19910;-43
2022/07/17 12:20:14;;;;;;;;;;;26.00;95.10;;;;;;5148053;27;20188;-44
2022/07/17 12:22:45;;;;;;;;;;;26.10;95.20;;;;;;5148856;27;19903;-47
2022/07/17 12:25:21;;;;;;;;;;;26.10;95.30;;;;;;5148050;27;19964;-48
2022/07/17 12:27:47;;;;;;;;;;;26.10;95.30;;;;;;5129656;27;19903;-46
2022/07/17 12:30:13;;;;;;;;;;;26.10;95.40;;;;;;5147827;27;19911;-43
2022/07/17 12:32:42;;;;;;;;;;;26.10;95.50;;;;;;5147734;27;19949;-50
2022/07/17 12:35:08;;;;;;;;;;;26.10;95.50;;;;;;5146722;27;19935;-45
2022/07/17 12:37:34;;;;;;;;;;;26.10;95.70;;;;;;5147176;27;20272;-43
2022/07/17 12:40:01;;;;;;;;;;;26.10;95.70;;;;;;5147736;27;19903;-48
2022/07/17 12:42:27;;;;;;;;;;;26.10;95.70;;;;;;5147702;27;19899;-43
2022/07/17 12:44:53;;;;;;;;;;;26.10;95.90;;;;;;5146877;27;19907;-44
2022/07/17 12:47:19;;;;;;;;;;;26.10;95.90;;;;;;5147033;27;19903;-44
2022/07/17 12:49:45;;;;;;;;;;;26.10;95.90;;;;;;5147075;27;19954;-47
2022/07/17 12:52:13;;;;;;;;;;;26.10;95.90;;;;;;5146946;27;20184;-43
2022/07/17 12:54:39;;;;;;;;;;;26.20;96.00;;;;;;5146785;27;19949;-45
2022/07/17 12:57:07;;;;;;;;;;;26.10;96.10;;;;;;5146742;27;19899;-45
2022/07/17 12:59:34;;;;;;;;;;;26.20;96.20;;;;;;5146888;27;19899;-43
2022/07/17 13:02:00;;;;;;;;;;;26.20;96.20;;;;;;5137751;27;19907;-45
2022/07/17 13:04:27;;;;;;;;;;;26.20;96.20;;;;;;5146103;27;19914;-44
2022/07/17 13:06:53;;;;;;;;;;;26.30;96.30;;;;;;5146485;27;19903;-48
2022/07/17 13:09:24;;;;;;;;;;;26.30;96.40;;;;;;5146226;27;19941;-51
2022/07/17 13:11:51;;;;;;;;;;;26.30;96.40;;;;;;5142968;27;20088;-44
2022/07/17 13:14:18;;;;;;;;;;;26.30;96.40;;;;;;5146498;27;20125;-43
2022/07/17 13:16:44;;;;;;;;;;;26.30;96.40;;;;;;5145912;27;19903;-45
2022/07/17 13:19:11;;;;;;;;;;;26.30;96.30;;;;;;5142465;27;19904;-46
2022/07/17 13:21:37;;;;;;;;;;;26.30;96.40;;;;;;5145700;27;19903;-44
2022/07/17 13:24:05;;;;;;;;;;;26.40;96.40;;;;;;5146121;27;19907;-48
2022/07/17 13:26:31;;;;;;;;;;;26.40;96.50;;;;;;5146147;27;19944;-48
2022/07/17 13:28:57;;;;;;;;;;;26.40;96.50;;;;;;5145240;27;20083;-45
2022/07/17 13:31:23;;;;;;;;;;;26.40;96.40;;;;;;5145964;27;19904;-46
2022/07/17 13:33:49;;;;;;;;;;;26.50;96.40;;;;;;5146394;27;19911;-43
2022/07/17 13:36:16;;;;;;;;;;;26.50;96.50;;;;;;5139609;27;20081;-44
2022/07/17 13:38:42;;;;;;;;;;;26.60;96.40;;;;;;5140452;27;19910;-49
2022/07/17 13:41:11;;;;;;;;;;;26.60;96.50;;;;;;5143939;27;19979;-48
2022/07/17 13:43:38;;;;;;;;;;;26.60;96.40;;;;;;5146559;27;19907;-50
2022/07/17 13:46:05;;;;;;;;;;;26.60;96.30;;;;;;5146337;27;19918;-46
2022/07/17 13:48:31;;;;;;;;;;;26.60;96.30;;;;;;5146419;27;19910;-53
2022/07/17 13:50:57;;;;;;;;;;;26.60;96.20;;;;;;5146172;27;19929;-48
2022/07/17 13:53:23;;;;;;;;;;;26.70;96.20;;;;;;5145658;27;19911;-49
2022/07/17 13:55:50;;;;;;;;;;;26.60;96.10;;;;;;5145813;27;19908;-45
2022/07/17 13:58:16;;;;;;;;;;;26.70;96.10;;;;;;5136188;27;20125;-42
2022/07/17 14:00:42;;;;;;;;;;;26.70;96.00;;;;;;5144580;27;19907;-48
2022/07/17 14:03:08;;;;;;;;;;;26.80;96.00;;;;;;5145398;27;19899;-43
2022/07/17 14:05:34;;;;;;;;;;;26.70;95.90;;;;;;5144282;27;20103;-44
2022/07/17 14:08:00;;;;;;;;;;;26.70;95.80;;;;;;5124770;28;19903;-44
2022/07/17 14:10:27;;;;;;;;;;;26.80;95.90;;;;;;5126089;27;19911;-46
2022/07/17 14:12:53;;;;;;;;;;;26.80;95.90;;;;;;5145548;28;19978;-47
2022/07/17 14:15:19;;;;;;;;;;;26.80;95.90;;;;;;5144224;27;20133;-42